Impacts TAF Board INFO
FOR SITUATIONAL AWARENESS. NOT TO BE USED FOR FLIGHT PLANNING PURPOSES.
IDs:

KPHL - Philadelphia Intl, PA, US

Issued at 1720 UTC 21 Jun 2018
Updated at 1946 UTC 21 Jun 2018
Potential Impact None Slight Moderate High
Time<<22/20Z 22/21Z 22/22Z 22/23Z 23/00Z 23/01Z 23/02Z 23/03Z 23/04Z 23/05Z 23/06Z 23/07Z 23/08Z
Type PRVL PRVL PRVL PRVL
VIS >6 >6 >6 >6
CIG 35 20 20 20
Cover OVC OVC OVC OVC
FltCat VFR MVFR MVFR MVFR
WX -- -- -- --
WDir 90 80 80 80
WSpd 9 10 10 10
WGst -- -- -- --

Raw TAF
KPHL 211720Z 2118/2224 05009KT P6SM BKN040
  FM211900 02010KT P6SM SCT040
  FM220300 VRB03KT P6SM BKN200
  FM221200 09005KT P6SM BKN070
  FM221700 09009KT P6SM OVC035
  FM222100 08010KT P6SM OVC020


METAR Board
Radar Display
Forecast Discussion

FOR SITUATIONAL AWARENESS. NOT TO BE USED FOR FLIGHT PLANNING PURPOSES.